Time;durP1;ratioP1;P1;durP2;ratioP2;P2;SDS_P1;SDS_P2;PMS_P1;PMS_P2;Temp;Humidity;BMP_temperature;BMP_pressure;BME280_temperature;BME280_humidity;BME280_pressure;Samples;Min_cycle;Max_cycle;Signal;HPM_P1;HPM_P2
2021/07/18 00:01:51;;;;;;;2.40;0.87;;;;;;;;;;5010780;28;20441;-76
2021/07/18 00:04:17;;;;;;;1.00;0.77;;;;;;;;;;5009875;28;20434;-76
2021/07/18 00:06:42;;;;;;;0.90;0.80;;;;;;;;;;5010316;28;20468;-76
2021/07/18 00:09:08;;;;;;;0.60;0.60;;;;;;;;;;5012252;28;20990;-76
2021/07/18 00:11:34;;;;;;;0.60;0.50;;;;;;;;;;5009947;28;20440;-76
2021/07/18 00:14:00;;;;;;;0.90;0.77;;;;;;;;;;5011206;28;20445;-75
2021/07/18 00:16:26;;;;;;;0.73;0.60;;;;;;;;;;5009586;28;20819;-76
2021/07/18 00:18:53;;;;;;;1.00;0.67;;;;;;;;;;5010364;28;20399;-76
2021/07/18 00:21:19;;;;;;;1.00;0.90;;;;;;;;;;5010231;28;21073;-76
2021/07/18 00:23:45;;;;;;;0.70;0.70;;;;;;;;;;5012086;28;20391;-76
2021/07/18 00:26:11;;;;;;;1.27;1.17;;;;;;;;;;5008865;28;20918;-76
2021/07/18 00:28:37;;;;;;;0.90;0.90;;;;;;;;;;5011895;28;20479;-76
2021/07/18 00:31:03;;;;;;;0.90;0.70;;;;;;;;;;5010704;28;20413;-76
2021/07/18 00:33:29;;;;;;;1.03;0.93;;;;;;;;;;5010170;28;20419;-76
2021/07/18 00:35:55;;;;;;;0.60;0.60;;;;;;;;;;5016081;28;20842;-76
2021/07/18 00:38:21;;;;;;;0.80;0.80;;;;;;;;;;5010856;28;20928;-76
2021/07/18 00:40:49;;;;;;;1.37;1.10;;;;;;;;;;5017084;28;20975;-76
2021/07/18 00:43:15;;;;;;;0.60;0.60;;;;;;;;;;5010927;28;20444;-76
2021/07/18 00:45:41;;;;;;;0.63;0.63;;;;;;;;;;5009843;28;20850;-75
2021/07/18 00:48:07;;;;;;;0.80;0.70;;;;;;;;;;5010204;28;20806;-76
2021/07/18 00:50:33;;;;;;;0.60;0.60;;;;;;;;;;5010941;28;20966;-76
2021/07/18 00:52:59;;;;;;;0.90;0.90;;;;;;;;;;5011257;28;20397;-76
2021/07/18 00:55:25;;;;;;;1.20;1.10;;;;;;;;;;5010477;28;20853;-76
2021/07/18 00:57:51;;;;;;;0.60;0.50;;;;;;;;;;5011393;28;20429;-76
2021/07/18 01:00:18;;;;;;;1.83;1.13;;;;;;;;;;5010156;28;20448;-76
2021/07/18 01:02:45;;;;;;;0.60;0.60;;;;;;;;;;5010818;28;20417;-76
2021/07/18 01:05:12;;;;;;;0.60;0.60;;;;;;;;;;5006795;28;20440;-76
2021/07/18 01:07:38;;;;;;;0.60;0.60;;;;;;;;;;5013422;28;20444;-76
2021/07/18 01:10:05;;;;;;;2.10;1.20;;;;;;;;;;5011024;28;20427;-75
2021/07/18 01:12:31;;;;;;;0.60;0.60;;;;;;;;;;5013930;28;20407;-76
2021/07/18 01:14:57;;;;;;;5.57;1.10;;;;;;;;;;5012558;28;20537;-76
2021/07/18 01:17:23;;;;;;;0.80;0.80;;;;;;;;;;5013522;28;20416;-75
2021/07/18 01:19:49;;;;;;;3.50;0.70;;;;;;;;;;5007424;28;20884;-76
2021/07/18 01:22:15;;;;;;;1.17;1.07;;;;;;;;;;5012962;28;20432;-76
2021/07/18 01:24:41;;;;;;;0.70;0.70;;;;;;;;;;5013934;28;20481;-76
2021/07/18 01:27:07;;;;;;;1.20;1.10;;;;;;;;;;5012877;28;20543;-76
2021/07/18 01:29:34;;;;;;;0.80;0.80;;;;;;;;;;5015245;28;20493;-76
2021/07/18 01:32:01;;;;;;;0.70;0.70;;;;;;;;;;5013303;28;20476;-76
2021/07/18 01:34:27;;;;;;;0.80;0.80;;;;;;;;;;5013204;28;20951;-76
2021/07/18 01:36:53;;;;;;;2.27;2.10;;;;;;;;;;5019415;28;20530;-76
2021/07/18 01:39:19;;;;;;;0.67;0.67;;;;;;;;;;5012407;28;20536;-76
2021/07/18 01:41:47;;;;;;;0.70;0.70;;;;;;;;;;5008183;28;20409;-76
2021/07/18 01:44:13;;;;;;;0.83;0.83;;;;;;;;;;5007055;28;20437;-76
2021/07/18 01:46:39;;;;;;;0.70;0.70;;;;;;;;;;5006318;28;20449;-76
2021/07/18 01:49:06;;;;;;;0.80;0.80;;;;;;;;;;5008537;28;20795;-76
2021/07/18 01:51:32;;;;;;;0.90;0.90;;;;;;;;;;5008362;28;20431;-76
2021/07/18 01:53:58;;;;;;;1.33;1.00;;;;;;;;;;5007847;28;20442;-76
2021/07/18 01:56:24;;;;;;;0.70;0.60;;;;;;;;;;5008281;28;20484;-76
2021/07/18 01:58:51;;;;;;;0.90;0.90;;;;;;;;;;5010619;28;20453;-76
2021/07/18 02:01:24;;;;;;;0.70;0.60;;;;;;;;;;5008646;28;20485;-76
2021/07/18 02:03:50;;;;;;;1.13;0.87;;;;;;;;;;5007586;28;21090;-76
2021/07/18 02:06:16;;;;;;;1.03;0.93;;;;;;;;;;5009121;28;20921;-76
2021/07/18 02:08:42;;;;;;;1.80;1.00;;;;;;;;;;5008524;28;20415;-76
2021/07/18 02:11:08;;;;;;;0.70;0.70;;;;;;;;;;5009260;28;20443;-75
2021/07/18 02:13:34;;;;;;;1.17;1.10;;;;;;;;;;5006461;28;20420;-76
2021/07/18 02:16:00;;;;;;;0.77;0.77;;;;;;;;;;5006705;28;20835;-77
2021/07/18 02:18:26;;;;;;;2.00;1.17;;;;;;;;;;5009040;28;20788;-77
2021/07/18 02:20:56;;;;;;;0.70;0.70;;;;;;;;;;5009831;28;20436;-76
2021/07/18 02:23:22;;;;;;;1.43;0.80;;;;;;;;;;5008683;28;20411;-76
2021/07/18 02:25:49;;;;;;;0.80;0.80;;;;;;;;;;5008144;28;20431;-76
2021/07/18 02:28:15;;;;;;;1.33;0.73;;;;;;;;;;5007845;28;20411;-76
2021/07/18 02:30:41;;;;;;;2.73;1.10;;;;;;;;;;5008168;28;20618;-76
2021/07/18 02:33:07;;;;;;;0.80;0.70;;;;;;;;;;5007511;28;20445;-77
2021/07/18 02:35:33;;;;;;;0.60;0.60;;;;;;;;;;5007119;28;20480;-77
2021/07/18 02:37:59;;;;;;;2.30;0.80;;;;;;;;;;5007231;28;20422;-76
2021/07/18 02:40:25;;;;;;;1.37;1.27;;;;;;;;;;5007725;28;20787;-76
2021/07/18 02:42:51;;;;;;;0.70;0.70;;;;;;;;;;5008548;28;20434;-76
2021/07/18 02:45:18;;;;;;;0.60;0.60;;;;;;;;;;5011905;28;20550;-76
2021/07/18 02:47:44;;;;;;;0.63;0.63;;;;;;;;;;5007769;28;20447;-76
2021/07/18 02:50:11;;;;;;;0.60;0.60;;;;;;;;;;5013552;28;20768;-76
2021/07/18 02:52:37;;;;;;;0.70;0.70;;;;;;;;;;5011167;28;20992;-77
2021/07/18 02:55:05;;;;;;;0.80;0.80;;;;;;;;;;5011360;28;20560;-76
2021/07/18 02:57:31;;;;;;;1.13;1.03;;;;;;;;;;5011340;28;20831;-77
2021/07/18 02:59:57;;;;;;;0.73;0.73;;;;;;;;;;5011751;28;20431;-77
2021/07/18 03:02:23;;;;;;;1.13;1.13;;;;;;;;;;5012338;28;20976;-77
2021/07/18 03:04:49;;;;;;;0.60;0.60;;;;;;;;;;5010892;28;20507;-76
2021/07/18 03:07:15;;;;;;;0.60;0.60;;;;;;;;;;5011826;28;20438;-77
2021/07/18 03:09:41;;;;;;;0.60;0.60;;;;;;;;;;5012131;28;20411;-77
2021/07/18 03:12:08;;;;;;;0.70;0.70;;;;;;;;;;5011199;28;20891;-77
2021/07/18 03:14:34;;;;;;;0.80;0.80;;;;;;;;;;5012432;28;20479;-77
2021/07/18 03:16:59;;;;;;;1.13;0.90;;;;;;;;;;5008960;28;20476;-77
2021/07/18 03:19:25;;;;;;;0.73;0.73;;;;;;;;;;5012813;28;20750;-77
2021/07/18 03:21:51;;;;;;;0.97;0.97;;;;;;;;;;5012236;28;20433;-76
2021/07/18 03:24:17;;;;;;;1.20;1.10;;;;;;;;;;5012212;28;20435;-77
2021/07/18 03:26:43;;;;;;;0.60;0.50;;;;;;;;;;5010980;28;20448;-76
2021/07/18 03:29:09;;;;;;;0.60;0.60;;;;;;;;;;5012020;28;20439;-76
2021/07/18 03:31:35;;;;;;;0.97;0.80;;;;;;;;;;5010964;28;20423;-77
2021/07/18 03:34:01;;;;;;;1.77;1.40;;;;;;;;;;5010410;28;20426;-77
2021/07/18 03:36:27;;;;;;;0.70;0.70;;;;;;;;;;5016371;28;20465;-76
2021/07/18 03:38:53;;;;;;;0.70;0.70;;;;;;;;;;5016426;28;20448;-77
2021/07/18 03:41:20;;;;;;;0.60;0.60;;;;;;;;;;5012062;28;20450;-76
2021/07/18 03:43:47;;;;;;;0.83;0.83;;;;;;;;;;5011167;28;20925;-76
2021/07/18 03:46:13;;;;;;;1.00;0.90;;;;;;;;;;5009734;28;20438;-76
2021/07/18 03:48:39;;;;;;;0.70;0.70;;;;;;;;;;5009622;28;20938;-77
2021/07/18 03:51:05;;;;;;;1.37;1.27;;;;;;;;;;5006838;28;20483;-77
2021/07/18 03:53:31;;;;;;;1.00;1.00;;;;;;;;;;5010282;28;20433;-77
2021/07/18 03:55:57;;;;;;;1.10;1.00;;;;;;;;;;5006586;28;20489;-77
2021/07/18 03:58:23;;;;;;;1.07;1.00;;;;;;;;;;5008970;28;20519;-76
2021/07/18 04:00:49;;;;;;;1.53;0.90;;;;;;;;;;5010564;28;20794;-77
2021/07/18 04:03:15;;;;;;;0.97;0.87;;;;;;;;;;5012355;28;20399;-77
2021/07/18 04:05:41;;;;;;;1.10;1.10;;;;;;;;;;5007518;28;20466;-76
2021/07/18 04:08:07;;;;;;;1.83;1.10;;;;;;;;;;5010307;28;20930;-76
2021/07/18 04:10:33;;;;;;;1.70;0.93;;;;;;;;;;5011182;28;20417;-76
2021/07/18 04:12:59;;;;;;;1.27;1.17;;;;;;;;;;5010265;28;22240;-76
2021/07/18 04:15:25;;;;;;;0.60;0.60;;;;;;;;;;5010661;28;20979;-76
2021/07/18 04:17:52;;;;;;;0.90;0.80;;;;;;;;;;5010851;28;20462;-76
2021/07/18 04:20:18;;;;;;;0.80;0.80;;;;;;;;;;5010596;28;20414;-76
2021/07/18 04:22:44;;;;;;;0.60;0.60;;;;;;;;;;5008778;28;20437;-76
2021/07/18 04:25:10;;;;;;;2.60;1.70;;;;;;;;;;5005145;28;20451;-77
2021/07/18 04:27:36;;;;;;;0.80;0.80;;;;;;;;;;5010543;28;20959;-76
2021/07/18 04:30:04;;;;;;;0.80;0.80;;;;;;;;;;5012699;28;20423;-79
2021/07/18 04:32:29;;;;;;;0.80;0.80;;;;;;;;;;5014005;28;20411;-78
2021/07/18 04:34:55;;;;;;;0.70;0.70;;;;;;;;;;5013168;28;20650;-79
2021/07/18 04:37:21;;;;;;;0.60;0.60;;;;;;;;;;5008689;28;20811;-79
2021/07/18 04:39:47;;;;;;;1.80;1.07;;;;;;;;;;5016738;28;20419;-79
2021/07/18 04:42:13;;;;;;;0.70;0.70;;;;;;;;;;5014337;28;20815;-78
2021/07/18 04:44:39;;;;;;;1.30;1.20;;;;;;;;;;5015765;28;20484;-78
2021/07/18 04:47:05;;;;;;;0.77;0.73;;;;;;;;;;5012038;28;20471;-78
2021/07/18 04:49:31;;;;;;;0.70;0.70;;;;;;;;;;5010872;28;20415;-79
2021/07/18 04:51:58;;;;;;;1.73;1.13;;;;;;;;;;5011556;28;20505;-79
2021/07/18 04:54:24;;;;;;;0.87;0.87;;;;;;;;;;5010081;28;20628;-79
2021/07/18 04:56:51;;;;;;;1.40;1.30;;;;;;;;;;5034364;23;20576;-78
2021/07/18 04:59:17;;;;;;;0.60;0.60;;;;;;;;;;5033349;28;21096;-76
2021/07/18 05:01:43;;;;;;;2.03;1.20;;;;;;;;;;5033823;28;20991;-75
2021/07/18 05:04:09;;;;;;;0.70;0.70;;;;;;;;;;5029020;28;20440;-76
2021/07/18 05:06:35;;;;;;;1.60;1.17;;;;;;;;;;5029177;28;20434;-75
2021/07/18 05:09:01;;;;;;;1.43;0.90;;;;;;;;;;5028934;28;20560;-75
2021/07/18 05:11:27;;;;;;;1.60;1.50;;;;;;;;;;5028427;28;20498;-75
2021/07/18 05:13:53;;;;;;;0.90;0.80;;;;;;;;;;5031079;28;20444;-76
2021/07/18 05:16:19;;;;;;;0.70;0.70;;;;;;;;;;5030217;28;20456;-76
2021/07/18 05:18:45;;;;;;;1.40;1.30;;;;;;;;;;5028568;28;20893;-76
2021/07/18 05:21:11;;;;;;;0.80;0.80;;;;;;;;;;5030431;28;20439;-76
2021/07/18 05:23:37;;;;;;;1.10;1.00;;;;;;;;;;5030738;28;20413;-75
2021/07/18 05:26:03;;;;;;;1.90;1.13;;;;;;;;;;5029107;28;20444;-76
2021/07/18 05:28:29;;;;;;;0.70;0.70;;;;;;;;;;5030429;28;20508;-75
2021/07/18 05:30:56;;;;;;;1.73;1.63;;;;;;;;;;5029497;28;20447;-76
2021/07/18 05:33:21;;;;;;;2.20;1.53;;;;;;;;;;5029960;28;20409;-75
2021/07/18 05:35:48;;;;;;;1.20;0.80;;;;;;;;;;5028199;28;20476;-75
2021/07/18 05:38:14;;;;;;;1.73;1.10;;;;;;;;;;5030034;28;20452;-76
2021/07/18 05:40:40;;;;;;;1.73;1.33;;;;;;;;;;5029046;28;20779;-75
2021/07/18 05:43:06;;;;;;;2.30;1.03;;;;;;;;;;5030988;28;20412;-76
2021/07/18 05:45:32;;;;;;;3.87;1.40;;;;;;;;;;5030044;28;20459;-75
2021/07/18 05:47:58;;;;;;;1.10;1.00;;;;;;;;;;5029166;28;20438;-75
2021/07/18 05:50:24;;;;;;;1.23;1.10;;;;;;;;;;5020991;28;20411;-75
2021/07/18 05:52:49;;;;;;;1.57;1.47;;;;;;;;;;5033446;28;20430;-75
2021/07/18 05:55:16;;;;;;;1.57;1.47;;;;;;;;;;5033044;28;20449;-76
2021/07/18 05:57:42;;;;;;;1.20;0.97;;;;;;;;;;5032805;28;20816;-76
2021/07/18 06:00:09;;;;;;;1.47;1.33;;;;;;;;;;5034212;28;20407;-76
2021/07/18 06:02:35;;;;;;;1.90;1.70;;;;;;;;;;5034045;28;20464;-75
2021/07/18 06:05:01;;;;;;;2.20;1.17;;;;;;;;;;5033042;28;20432;-75
2021/07/18 06:07:27;;;;;;;1.73;1.00;;;;;;;;;;5042633;28;20439;-76
2021/07/18 06:09:53;;;;;;;1.27;1.17;;;;;;;;;;5033933;28;20409;-75
2021/07/18 06:12:19;;;;;;;0.70;0.67;;;;;;;;;;5040014;28;20395;-75
2021/07/18 06:14:45;;;;;;;2.03;1.00;;;;;;;;;;5034041;28;20482;-75
2021/07/18 06:17:11;;;;;;;4.80;0.80;;;;;;;;;;5033914;28;20427;-75
2021/07/18 06:19:39;;;;;;;0.90;0.77;;;;;;;;;;5033923;28;20417;-77
2021/07/18 06:22:05;;;;;;;1.07;0.80;;;;;;;;;;5033080;28;20869;-75
2021/07/18 06:24:31;;;;;;;0.70;0.60;;;;;;;;;;5033850;28;20431;-76
2021/07/18 06:26:56;;;;;;;2.20;1.03;;;;;;;;;;5033239;28;20448;-75
2021/07/18 06:29:22;;;;;;;2.37;1.43;;;;;;;;;;5033887;28;20786;-75
2021/07/18 06:31:48;;;;;;;0.60;0.60;;;;;;;;;;5033268;28;20388;-76
2021/07/18 06:34:14;;;;;;;1.10;0.70;;;;;;;;;;5033808;28;20425;-75
2021/07/18 06:36:40;;;;;;;0.70;0.70;;;;;;;;;;5033068;28;20476;-75
2021/07/18 06:39:06;;;;;;;1.73;0.87;;;;;;;;;;5033749;28;20424;-76
2021/07/18 06:41:32;;;;;;;1.00;0.87;;;;;;;;;;5039969;28;20517;-75
2021/07/18 06:43:58;;;;;;;0.87;0.87;;;;;;;;;;5053699;28;20751;-76
2021/07/18 06:46:24;;;;;;;1.00;0.87;;;;;;;;;;5053205;28;20412;-75
2021/07/18 06:48:50;;;;;;;2.90;2.70;;;;;;;;;;5053465;28;20427;-76
2021/07/18 06:51:16;;;;;;;0.90;0.90;;;;;;;;;;5048136;28;20432;-75
2021/07/18 06:53:42;;;;;;;1.00;1.00;;;;;;;;;;5047519;28;20477;-76
2021/07/18 06:56:08;;;;;;;0.80;0.80;;;;;;;;;;5033150;28;20438;-75
2021/07/18 06:58:34;;;;;;;1.03;0.93;;;;;;;;;;5033055;28;20452;-76
2021/07/18 07:01:00;;;;;;;1.07;0.97;;;;;;;;;;5033494;28;20409;-75
2021/07/18 07:03:26;;;;;;;1.60;1.50;;;;;;;;;;5033106;28;20408;-75
2021/07/18 07:05:52;;;;;;;0.70;0.70;;;;;;;;;;5032967;28;20441;-76
2021/07/18 07:08:18;;;;;;;0.80;0.80;;;;;;;;;;5032777;28;20453;-75
2021/07/18 07:10:44;;;;;;;1.60;1.50;;;;;;;;;;5040979;28;20391;-75
2021/07/18 07:13:10;;;;;;;2.10;0.70;;;;;;;;;;5047354;28;20418;-75
2021/07/18 07:15:36;;;;;;;1.93;1.23;;;;;;;;;;5052849;28;20496;-76
2021/07/18 07:18:02;;;;;;;1.00;0.70;;;;;;;;;;5052494;28;20543;-76
2021/07/18 07:20:28;;;;;;;0.87;0.80;;;;;;;;;;5053036;28;21057;-76
2021/07/18 07:22:54;;;;;;;1.33;0.80;;;;;;;;;;5037216;28;20446;-76
2021/07/18 07:25:20;;;;;;;0.60;0.53;;;;;;;;;;5033966;28;20459;-77
2021/07/18 07:27:46;;;;;;;0.70;0.70;;;;;;;;;;5033511;28;20430;-77
2021/07/18 07:30:13;;;;;;;1.00;0.90;;;;;;;;;;5034185;28;20419;-77
2021/07/18 07:32:39;;;;;;;0.97;0.97;;;;;;;;;;5034261;28;20410;-77
2021/07/18 07:35:06;;;;;;;1.03;1.03;;;;;;;;;;5033846;28;20413;-77
2021/07/18 07:37:33;;;;;;;0.93;0.83;;;;;;;;;;5031756;28;20454;-77
2021/07/18 07:39:58;;;;;;;1.50;1.40;;;;;;;;;;5033281;28;20393;-77
2021/07/18 07:42:25;;;;;;;0.70;0.70;;;;;;;;;;5041960;28;20460;-77
2021/07/18 07:44:52;;;;;;;1.50;1.40;;;;;;;;;;5014306;28;20962;-77
2021/07/18 07:47:18;;;;;;;1.83;1.43;;;;;;;;;;5013511;28;20434;-77
2021/07/18 07:49:45;;;;;;;0.80;0.80;;;;;;;;;;5013791;28;20405;-77
2021/07/18 07:52:11;;;;;;;0.93;0.70;;;;;;;;;;5032190;28;20442;-77
2021/07/18 07:54:37;;;;;;;0.80;0.80;;;;;;;;;;5033715;28;20513;-78
2021/07/18 07:57:04;;;;;;;2.87;1.07;;;;;;;;;;5033254;28;20535;-77
2021/07/18 07:59:29;;;;;;;0.70;0.67;;;;;;;;;;5032569;28;20457;-77
2021/07/18 08:01:56;;;;;;;0.83;0.83;;;;;;;;;;5032926;28;20458;-77
2021/07/18 08:04:21;;;;;;;0.80;0.80;;;;;;;;;;5033383;28;20409;-77
2021/07/18 08:06:47;;;;;;;0.90;0.90;;;;;;;;;;5033143;28;20427;-77
2021/07/18 08:09:13;;;;;;;1.57;1.13;;;;;;;;;;5033750;28;20456;-78
2021/07/18 08:11:39;;;;;;;1.23;1.00;;;;;;;;;;5043935;28;20442;-78
2021/07/18 08:14:05;;;;;;;0.80;0.80;;;;;;;;;;5052823;28;20418;-78
2021/07/18 08:16:31;;;;;;;0.70;0.70;;;;;;;;;;5039642;28;20493;-77
2021/07/18 08:18:57;;;;;;;0.80;0.60;;;;;;;;;;5033592;28;20424;-77
2021/07/18 08:21:23;;;;;;;0.80;0.80;;;;;;;;;;5032444;28;20501;-77
2021/07/18 08:23:49;;;;;;;0.80;0.70;;;;;;;;;;5033905;28;20459;-77
2021/07/18 08:26:20;;;;;;;1.47;1.37;;;;;;;;;;5033738;28;20420;-78
2021/07/18 08:28:46;;;;;;;0.60;0.60;;;;;;;;;;5033860;28;20448;-77
2021/07/18 08:31:12;;;;;;;0.60;0.60;;;;;;;;;;5034092;28;20411;-78
2021/07/18 08:33:38;;;;;;;0.60;0.50;;;;;;;;;;5034183;28;20448;-78
2021/07/18 08:36:04;;;;;;;0.70;0.63;;;;;;;;;;5035363;28;20466;-78
2021/07/18 08:38:30;;;;;;;0.60;0.50;;;;;;;;;;5034108;28;20437;-78
2021/07/18 08:40:56;;;;;;;0.60;0.50;;;;;;;;;;5041416;28;20471;-77
2021/07/18 08:43:24;;;;;;;0.70;0.60;;;;;;;;;;5035450;28;20436;-78
2021/07/18 08:45:50;;;;;;;0.70;0.57;;;;;;;;;;5033563;28;20857;-78
2021/07/18 08:48:16;;;;;;;0.60;0.53;;;;;;;;;;5034591;28;20774;-78
2021/07/18 08:50:43;;;;;;;0.80;0.80;;;;;;;;;;5033839;28;20488;-77
2021/07/18 08:53:09;;;;;;;1.00;0.83;;;;;;;;;;5020854;28;20509;-78
2021/07/18 08:55:35;;;;;;;0.70;0.70;;;;;;;;;;5034506;28;20498;-77
2021/07/18 08:58:01;;;;;;;0.80;0.60;;;;;;;;;;5034363;28;20928;-77
2021/07/18 09:00:26;;;;;;;0.60;0.50;;;;;;;;;;5032279;28;20451;-77
2021/07/18 09:02:53;;;;;;;1.73;0.70;;;;;;;;;;5032468;28;20876;-77
2021/07/18 09:05:19;;;;;;;0.90;0.80;;;;;;;;;;5032366;28;20410;-77
2021/07/18 09:07:52;;;;;;;0.80;0.80;;;;;;;;;;5031449;28;20915;-75
2021/07/18 09:10:27;;;;;;;0.70;0.70;;;;;;;;;;5038625;28;20455;-76
2021/07/18 09:13:05;;;;;;;1.00;0.83;;;;;;;;;;5024810;28;20447;-76
2021/07/18 09:15:42;;;;;;;0.70;0.60;;;;;;;;;;5031463;28;20468;-76
2021/07/18 09:18:12;;;;;;;0.60;0.50;;;;;;;;;;5031266;28;20429;-76
2021/07/18 09:20:40;;;;;;;0.73;0.70;;;;;;;;;;5031509;28;20420;-75
2021/07/18 09:23:19;;;;;;;0.60;0.50;;;;;;;;;;5031339;28;20412;-75
2021/07/18 09:25:46;;;;;;;0.60;0.60;;;;;;;;;;5032859;28;20515;-75
2021/07/18 09:28:16;;;;;;;0.60;0.50;;;;;;;;;;5034631;28;20453;-76
2021/07/18 09:30:42;;;;;;;0.70;0.60;;;;;;;;;;5035464;28;20983;-76
2021/07/18 09:33:20;;;;;;;0.60;0.50;;;;;;;;;;5035182;28;20503;-75
2021/07/18 09:35:46;;;;;;;0.70;0.50;;;;;;;;;;5034838;28;20548;-76
2021/07/18 09:38:20;;;;;;;0.83;0.80;;;;;;;;;;5034428;28;20538;-76
2021/07/18 09:40:54;;;;;;;0.60;0.50;;;;;;;;;;5043139;28;20415;-76
2021/07/18 09:43:23;;;;;;;0.60;0.50;;;;;;;;;;5043733;28;20968;-76
2021/07/18 09:45:57;;;;;;;0.60;0.50;;;;;;;;;;5034557;28;20463;-77
2021/07/18 09:48:32;;;;;;;0.70;0.70;;;;;;;;;;5034843;28;20928;-76
2021/07/18 09:51:06;;;;;;;0.80;0.70;;;;;;;;;;5034875;28;20419;-76
2021/07/18 09:53:32;;;;;;;0.60;0.50;;;;;;;;;;5045676;28;20506;-77
2021/07/18 09:55:59;;;;;;;0.70;0.50;;;;;;;;;;5034241;28;20449;-76
2021/07/18 09:58:25;;;;;;;0.90;0.77;;;;;;;;;;5034592;28;20982;-76
2021/07/18 10:00:52;;;;;;;0.60;0.50;;;;;;;;;;5034648;28;20406;-76
2021/07/18 10:03:22;;;;;;;0.73;0.57;;;;;;;;;;5034079;28;20425;-76
2021/07/18 10:06:03;;;;;;;0.60;0.60;;;;;;;;;;5034020;28;20474;-77
2021/07/18 10:08:29;;;;;;;0.60;0.50;;;;;;;;;;5034010;28;20448;-76
2021/07/18 10:10:55;;;;;;;0.80;0.67;;;;;;;;;;5042399;28;20421;-77
2021/07/18 10:13:22;;;;;;;0.73;0.73;;;;;;;;;;5034660;28;20466;-77
2021/07/18 10:15:48;;;;;;;0.60;0.50;;;;;;;;;;5032956;28;20510;-77
2021/07/18 10:18:14;;;;;;;0.70;0.70;;;;;;;;;;5034235;28;20885;-77
2021/07/18 10:20:41;;;;;;;0.87;0.87;;;;;;;;;;5034629;28;20491;-78
2021/07/18 10:23:07;;;;;;;0.70;0.70;;;;;;;;;;5034561;28;20479;-77
2021/07/18 10:25:33;;;;;;;0.70;0.60;;;;;;;;;;5034424;28;20428;-77
2021/07/18 10:27:59;;;;;;;0.60;0.60;;;;;;;;;;5034567;28;20833;-77
2021/07/18 10:30:26;;;;;;;0.60;0.50;;;;;;;;;;5034729;28;20409;-77
2021/07/18 10:32:54;;;;;;;0.80;0.80;;;;;;;;;;5034475;28;20927;-77
2021/07/18 10:35:22;;;;;;;0.77;0.63;;;;;;;;;;5034759;28;20488;-77
2021/07/18 10:37:48;;;;;;;0.70;0.60;;;;;;;;;;5033115;28;20453;-77
2021/07/18 10:40:18;;;;;;;4.87;0.93;;;;;;;;;;5032899;28;20504;-77
2021/07/18 10:42:43;;;;;;;0.80;0.80;;;;;;;;;;5042004;28;20439;-77
2021/07/18 10:45:17;;;;;;;1.10;0.67;;;;;;;;;;5034539;28;20432;-77
2021/07/18 10:48:02;;;;;;;0.70;0.70;;;;;;;;;;5034205;28;20528;-78
2021/07/18 10:50:43;;;;;;;0.70;0.53;;;;;;;;;;5034061;28;20405;-78
2021/07/18 10:53:15;;;;;;;0.70;0.70;;;;;;;;;;5035972;28;20463;-78
2021/07/18 10:55:41;;;;;;;0.70;0.60;;;;;;;;;;5036722;28;20460;-77
2021/07/18 10:58:07;;;;;;;0.70;0.60;;;;;;;;;;5062461;23;20995;-76
2021/07/18 11:00:33;;;;;;;1.97;0.80;;;;;;;;;;5022735;28;20414;-75
2021/07/18 11:03:02;;;;;;;0.60;0.50;;;;;;;;;;5027270;28;20493;-76
2021/07/18 11:05:38;;;;;;;0.60;0.60;;;;;;;;;;5013135;28;20481;-76
2021/07/18 11:08:05;;;;;;;0.70;0.60;;;;;;;;;;5021772;28;20963;-75
2021/07/18 11:10:45;;;;;;;1.03;0.63;;;;;;;;;;5032984;28;20410;-76
2021/07/18 11:13:11;;;;;;;0.90;0.90;;;;;;;;;;5033151;28;20412;-76
2021/07/18 11:15:38;;;;;;;0.60;0.60;;;;;;;;;;5031909;28;20456;-76
2021/07/18 11:18:12;;;;;;;1.67;0.80;;;;;;;;;;5032070;28;20433;-76
2021/07/18 11:20:39;;;;;;;0.67;0.63;;;;;;;;;;5032518;28;20980;-76
2021/07/18 11:23:06;;;;;;;0.60;0.50;;;;;;;;;;5033083;28;20858;-76
2021/07/18 11:25:38;;;;;;;0.60;0.50;;;;;;;;;;5032857;28;20406;-77
2021/07/18 11:28:04;;;;;;;0.70;0.70;;;;;;;;;;5029466;28;20459;-76
2021/07/18 11:30:38;;;;;;;0.70;0.60;;;;;;;;;;5045258;28;20422;-76
2021/07/18 11:33:26;;;;;;;0.60;0.60;;;;;;;;;;5032838;28;20977;-76
2021/07/18 11:35:56;;;;;;;0.80;0.50;;;;;;;;;;5032213;28;20457;-77
2021/07/18 11:38:22;;;;;;;0.60;0.50;;;;;;;;;;5033306;28;20457;-76
2021/07/18 11:40:48;;;;;;;0.60;0.50;;;;;;;;;;5044899;28;20862;-76
2021/07/18 11:43:14;;;;;;;0.60;0.43;;;;;;;;;;5047000;28;20514;-77
2021/07/18 11:45:40;;;;;;;0.70;0.70;;;;;;;;;;5032336;28;20415;-77
2021/07/18 11:48:06;;;;;;;1.17;0.97;;;;;;;;;;5023930;28;20458;-76
2021/07/18 11:50:32;;;;;;;0.67;0.60;;;;;;;;;;5043558;28;20524;-76
2021/07/18 11:53:01;;;;;;;0.73;0.60;;;;;;;;;;5036835;28;20872;-77
2021/07/18 11:55:29;;;;;;;1.00;0.60;;;;;;;;;;5032094;28;20560;-76
2021/07/18 11:57:55;;;;;;;0.50;0.50;;;;;;;;;;5031993;28;20815;-77
2021/07/18 12:00:21;;;;;;;0.70;0.60;;;;;;;;;;5031721;28;20865;-77
2021/07/18 12:02:50;;;;;;;0.70;0.70;;;;;;;;;;5025225;28;20429;-77
2021/07/18 12:05:16;;;;;;;0.70;0.60;;;;;;;;;;5012710;28;20402;-77
2021/07/18 12:07:42;;;;;;;0.50;0.47;;;;;;;;;;5011928;28;20834;-77
2021/07/18 12:10:19;;;;;;;0.60;0.50;;;;;;;;;;5016802;28;20430;-77
2021/07/18 12:12:48;;;;;;;0.70;0.67;;;;;;;;;;5032265;28;20783;-76
2021/07/18 12:15:14;;;;;;;0.60;0.57;;;;;;;;;;5031725;28;20432;-76
2021/07/18 12:17:40;;;;;;;1.00;0.73;;;;;;;;;;5031897;28;20542;-76
2021/07/18 12:20:07;;;;;;;0.80;0.60;;;;;;;;;;5040554;28;20463;-76
2021/07/18 12:22:33;;;;;;;0.70;0.70;;;;;;;;;;5031397;28;20503;-76
2021/07/18 12:24:59;;;;;;;0.60;0.60;;;;;;;;;;5030680;28;20420;-77
2021/07/18 12:27:28;;;;;;;0.60;0.50;;;;;;;;;;5030750;28;20582;-77
2021/07/18 12:30:00;;;;;;;0.50;0.50;;;;;;;;;;5016784;28;20970;-77
2021/07/18 12:32:28;;;;;;;0.50;0.50;;;;;;;;;;5031215;28;20466;-76
2021/07/18 12:34:55;;;;;;;0.70;0.60;;;;;;;;;;5031853;28;20474;-77
2021/07/18 12:37:25;;;;;;;0.60;0.50;;;;;;;;;;5031108;28;20461;-77
2021/07/18 12:39:51;;;;;;;0.97;0.97;;;;;;;;;;5031746;28;20788;-77
2021/07/18 12:42:20;;;;;;;0.80;0.70;;;;;;;;;;5031898;28;20408;-77
2021/07/18 12:44:47;;;;;;;0.70;0.70;;;;;;;;;;5027956;28;20798;-77
2021/07/18 12:47:22;;;;;;;0.63;0.50;;;;;;;;;;5017577;28;20421;-77
2021/07/18 12:50:07;;;;;;;0.80;0.70;;;;;;;;;;5041638;28;20449;-77
2021/07/18 12:52:33;;;;;;;0.63;0.60;;;;;;;;;;5016448;28;20790;-77
2021/07/18 12:55:13;;;;;;;0.50;0.50;;;;;;;;;;5012026;28;20759;-76
2021/07/18 12:57:39;;;;;;;0.50;0.47;;;;;;;;;;5011449;28;20512;-77
2021/07/18 13:00:05;;;;;;;0.50;0.40;;;;;;;;;;5013270;28;20423;-76
2021/07/18 13:02:31;;;;;;;0.60;0.50;;;;;;;;;;5015915;28;21017;-77
2021/07/18 13:05:02;;;;;;;0.80;0.60;;;;;;;;;;5017140;28;20522;-76
2021/07/18 13:07:28;;;;;;;0.70;0.60;;;;;;;;;;5015321;28;20433;-77
2021/07/18 13:10:17;;;;;;;0.57;0.50;;;;;;;;;;5015424;28;20907;-76
2021/07/18 13:12:43;;;;;;;0.77;0.70;;;;;;;;;;5015837;28;20408;-76
2021/07/18 13:15:12;;;;;;;0.80;0.80;;;;;;;;;;5034380;28;20413;-76
2021/07/18 13:17:51;;;;;;;0.60;0.60;;;;;;;;;;5037075;28;21015;-76
2021/07/18 13:20:18;;;;;;;0.60;0.60;;;;;;;;;;5044092;28;20415;-76
2021/07/18 13:22:45;;;;;;;1.00;0.90;;;;;;;;;;5015817;28;20430;-76
2021/07/18 13:25:22;;;;;;;0.60;0.60;;;;;;;;;;5015649;28;20405;-77
2021/07/18 13:27:49;;;;;;;0.53;0.53;;;;;;;;;;5021274;28;20795;-77
2021/07/18 13:30:15;;;;;;;0.60;0.60;;;;;;;;;;5035114;28;20428;-77
2021/07/18 13:32:45;;;;;;;0.70;0.70;;;;;;;;;;5035075;28;20908;-77
2021/07/18 13:35:14;;;;;;;0.80;0.53;;;;;;;;;;5035063;28;20419;-77
2021/07/18 13:37:46;;;;;;;0.70;0.70;;;;;;;;;;5034471;28;20435;-76
2021/07/18 13:40:22;;;;;;;0.80;0.80;;;;;;;;;;5030348;28;20421;-76
2021/07/18 13:42:48;;;;;;;0.63;0.63;;;;;;;;;;5034878;28;20420;-75
2021/07/18 13:45:14;;;;;;;0.90;0.70;;;;;;;;;;5034851;28;20512;-76
2021/07/18 13:47:40;;;;;;;0.70;0.70;;;;;;;;;;5036477;28;20451;-74
2021/07/18 13:50:06;;;;;;;0.60;0.60;;;;;;;;;;5046307;28;20409;-74
2021/07/18 13:52:32;;;;;;;0.73;0.70;;;;;;;;;;5048044;28;20453;-73
2021/07/18 13:54:58;;;;;;;0.60;0.60;;;;;;;;;;5034813;28;20444;-74
2021/07/18 13:57:24;;;;;;;0.80;0.60;;;;;;;;;;5033945;28;20468;-74
2021/07/18 13:59:50;;;;;;;0.60;0.60;;;;;;;;;;5034770;28;20427;-74
2021/07/18 14:02:16;;;;;;;0.80;0.80;;;;;;;;;;5021334;28;20521;-76
2021/07/18 14:04:42;;;;;;;1.20;1.13;;;;;;;;;;5022233;28;20768;-76
2021/07/18 14:07:08;;;;;;;0.60;0.60;;;;;;;;;;5032407;28;20459;-76
2021/07/18 14:09:34;;;;;;;0.60;0.60;;;;;;;;;;5034176;28;20424;-76
2021/07/18 14:12:00;;;;;;;0.60;0.60;;;;;;;;;;5033352;28;20410;-76
2021/07/18 14:14:26;;;;;;;8.43;1.00;;;;;;;;;;5034408;28;20950;-76
2021/07/18 14:16:52;;;;;;;0.90;0.90;;;;;;;;;;5033980;28;20491;-76
2021/07/18 14:19:18;;;;;;;0.60;0.60;;;;;;;;;;5042780;28;20519;-76
2021/07/18 14:21:44;;;;;;;0.60;0.60;;;;;;;;;;5045519;28;20437;-76
2021/07/18 14:24:10;;;;;;;0.77;0.77;;;;;;;;;;5034262;28;20770;-76
2021/07/18 14:26:36;;;;;;;0.60;0.53;;;;;;;;;;5034186;28;20409;-76
2021/07/18 14:29:02;;;;;;;0.77;0.77;;;;;;;;;;5032655;28;20458;-76
2021/07/18 14:31:29;;;;;;;0.60;0.60;;;;;;;;;;5034361;28;20418;-76
2021/07/18 14:33:55;;;;;;;1.17;1.03;;;;;;;;;;5031021;28;20448;-76
2021/07/18 14:36:21;;;;;;;0.87;0.70;;;;;;;;;;5014230;28;20450;-76
2021/07/18 14:38:47;;;;;;;0.80;0.80;;;;;;;;;;5014320;28;20925;-76
2021/07/18 14:41:13;;;;;;;1.33;0.70;;;;;;;;;;5029273;28;20416;-73
2021/07/18 14:43:39;;;;;;;1.00;1.00;;;;;;;;;;5033825;28;20471;-75